KCLL/CLL METAR and TAF weather

Enter ICAO airport designator
Station Type Date Time Source
KCLL METAR 2020/09/22 07:53 UTC NOAA

KCLL 220753Z AUTO 05016G20KT 4SM BR OVC004 22/21 A2993 RMK AO2 RAE41 SLP131 P0001 T02170211


Station Type Date Time Source
KCLL Decoded METAR 2020/09/22 07:53 UTC NOAA

COLLEGE STN EASTERWOOD FIELD, TX, United States (KCLL) 30-35N 096-22W 96M
Sep 22, 2020 - 03:53 AM EDT / 2020.09.22 0753 UTC
Wind: from the NE (050 degrees) at 18 MPH (16 KT) gusting to 23 MPH (20 KT):0
Visibility: 4 mile(s):0
Sky conditions: overcast
Weather: mist
Precipitation last hour: 0.01 inches
Temperature: 71.1 F (21.7 C)
Dew Point: 70.0 F (21.1 C)
Relative Humidity: 96%
Pressure (altimeter): 29.93 in. Hg (1013 hPa)
ob: KCLL 220753Z AUTO 05016G20KT 4SM BR OVC004 22/21 A2993 RMK AO2 RAE41 SLP131 P0001 T02170211
cycle: 8

Station Type Date Time Source
KCLL TAF 2020/09/22 06:22 UTC NOAA

TAF KCLL 220520Z 2206/2306 04012KT 6SM -SHRA BR OVC005
TEMPO 2206/2210 3SM SHRA BR
FM221000 04012KT 3SM SHRA BR OVC004
FM221600 03011KT 5SM SHRA BR OVC006
FM230200 03009KT 3SM -SHRA BR OVC004

Example: see airport list